Time;durP1;ratioP1;P1;durP2;ratioP2;P2;SDS_P1;SDS_P2;PMS_P1;PMS_P2;Temp;Humidity;BMP_temperature;BMP_pressure;BME280_temperature;BME280_humidity;BME280_pressure;Samples;Min_cycle;Max_cycle;Signal;HPM_P1;HPM_P2
2024/04/06 00:01:08;;;;;;;39.83;35.58;;;14.00;82.40;;;;;;4993857;28;113105;-51
2024/04/06 00:03:33;;;;;;;39.05;34.85;;;14.00;82.30;;;;;;4986063;28;113365;-51
2024/04/06 00:05:59;;;;;;;40.92;36.35;;;14.00;82.40;;;;;;4983087;28;112724;-52
2024/04/06 00:08:25;;;;;;;40.15;35.85;;;13.90;82.80;;;;;;4995906;28;112944;-51
2024/04/06 00:10:51;;;;;;;42.10;35.63;;;13.90;82.60;;;;;;4992074;28;113182;-52
2024/04/06 00:13:16;;;;;;;38.25;34.28;;;14.00;82.70;;;;;;4991941;28;114972;-52
2024/04/06 00:15:42;;;;;;;39.33;35.10;;;14.00;82.60;;;;;;4986160;28;114566;-52
2024/04/06 00:18:08;;;;;;;40.95;36.13;;;14.00;82.30;;;;;;4989075;28;112562;-52
2024/04/06 00:20:36;;;;;;;47.90;37.17;;;13.90;82.40;;;;;;4986794;28;112886;-51
2024/04/06 00:23:01;;;;;;;39.97;34.45;;;13.90;82.70;;;;;;4985908;28;114417;-52
2024/04/06 00:25:27;;;;;;;40.88;36.50;;;13.80;83.00;;;;;;4985940;28;112922;-52
2024/04/06 00:27:53;;;;;;;42.00;37.45;;;13.70;83.00;;;;;;4996230;28;112724;-52
2024/04/06 00:30:18;;;;;;;43.22;38.63;;;13.80;82.90;;;;;;4987829;28;112913;-52
2024/04/06 00:32:44;;;;;;;46.33;39.53;;;13.70;83.10;;;;;;4989339;28;113286;-52
2024/04/06 00:35:10;;;;;;;41.20;37.10;;;13.70;83.20;;;;;;4985896;28;112569;-52
2024/04/06 00:37:35;;;;;;;43.13;38.58;;;13.70;83.30;;;;;;4997373;28;112867;-52
2024/04/06 00:40:01;;;;;;;41.15;36.75;;;13.70;83.10;;;;;;4995161;28;112841;-51
2024/04/06 00:42:27;;;;;;;41.05;36.47;;;13.80;83.10;;;;;;4987587;28;113276;-51
2024/04/06 00:44:54;;;;;;;40.80;36.63;;;13.80;83.10;;;;;;4993463;28;113908;-52
2024/04/06 00:47:19;;;;;;;40.75;36.47;;;13.60;83.40;;;;;;4984581;28;112962;-52
2024/04/06 00:49:45;;;;;;;40.97;35.72;;;13.70;83.20;;;;;;4977743;28;112760;-52
2024/04/06 00:52:11;;;;;;;42.05;35.05;;;13.70;83.40;;;;;;4978357;28;113317;-52
2024/04/06 00:54:38;;;;;;;37.78;33.75;;;13.80;82.90;;;;;;4986322;28;113699;-52
2024/04/06 00:57:06;;;;;;;41.58;35.35;;;13.80;82.90;;;;;;4984752;28;112648;-52
2024/04/06 00:59:34;;;;;;;38.35;33.95;;;13.70;82.90;;;;;;4988406;28;112642;-52
2024/04/06 01:02:00;;;;;;;37.25;33.15;;;13.70;83.00;;;;;;4984742;28;113250;-52
2024/04/06 01:04:26;;;;;;;37.30;33.45;;;13.70;83.00;;;;;;4984592;28;114184;-52
2024/04/06 01:06:52;;;;;;;38.80;34.05;;;13.70;82.90;;;;;;4974457;28;113238;-52
2024/04/06 01:09:17;;;;;;;36.38;32.22;;;13.60;83.00;;;;;;4973692;28;112676;-52
2024/04/06 01:11:43;;;;;;;38.75;33.60;;;13.60;82.90;;;;;;4979422;28;114740;-52
2024/04/06 01:14:09;;;;;;;38.20;34.00;;;13.60;83.40;;;;;;4985073;28;113807;-52
2024/04/06 01:16:34;;;;;;;36.65;32.50;;;13.60;83.30;;;;;;4988294;28;112636;-52
2024/04/06 01:19:00;;;;;;;38.05;34.28;;;13.60;83.30;;;;;;4988139;28;112787;-52
2024/04/06 01:21:26;;;;;;;38.97;33.90;;;13.50;83.20;;;;;;4983511;28;114613;-52
2024/04/06 01:23:53;;;;;;;36.25;32.55;;;13.40;83.50;;;;;;4978197;28;112960;-52
2024/04/06 01:26:20;;;;;;;38.92;33.60;;;13.40;83.50;;;;;;4986934;28;112637;-52
2024/04/06 01:28:46;;;;;;;38.00;34.17;;;13.40;83.50;;;;;;4998934;28;112801;-52
2024/04/06 01:31:11;;;;;;;38.17;34.20;;;13.40;83.70;;;;;;4985723;28;113183;-52
2024/04/06 01:33:39;;;;;;;44.13;39.38;;;13.40;83.70;;;;;;4999101;28;112712;-52
2024/04/06 01:36:05;;;;;;;48.95;41.28;;;13.30;83.60;;;;;;4994040;28;112882;-52
2024/04/06 01:38:31;;;;;;;46.30;41.13;;;13.30;83.90;;;;;;4986577;28;112722;-52
2024/04/06 01:40:57;;;;;;;47.45;42.35;;;13.40;84.00;;;;;;4984900;28;113691;-52
2024/04/06 01:43:22;;;;;;;54.17;43.97;;;13.30;83.80;;;;;;4991751;28;113003;-52
2024/04/06 01:45:48;;;;;;;48.42;43.28;;;13.30;83.60;;;;;;4991001;28;113054;-52
2024/04/06 01:48:13;;;;;;;47.05;42.15;;;13.30;83.60;;;;;;4987072;28;112776;-52
2024/04/06 01:50:39;;;;;;;48.15;41.50;;;13.30;83.80;;;;;;4985477;28;114459;-52
2024/04/06 01:53:05;;;;;;;45.90;40.88;;;13.20;83.80;;;;;;4997818;28;112954;-52
2024/04/06 01:55:31;;;;;;;44.85;39.97;;;13.20;83.80;;;;;;4990192;28;112646;-52
2024/04/06 01:57:57;;;;;;;47.05;40.97;;;13.20;84.00;;;;;;4988736;28;113259;-52
2024/04/06 02:00:23;;;;;;;47.70;42.53;;;13.10;83.90;;;;;;4988407;28;114456;-52
2024/04/06 02:02:48;;;;;;;48.25;41.63;;;13.10;84.20;;;;;;4988483;28;114431;-52
2024/04/06 02:05:14;;;;;;;45.17;39.53;;;13.10;84.10;;;;;;4988981;28;112587;-52
2024/04/06 02:07:40;;;;;;;47.47;42.28;;;13.20;84.00;;;;;;4989777;28;112675;-52
2024/04/06 02:10:06;;;;;;;43.97;39.17;;;13.10;83.90;;;;;;4991832;28;113298;-52
2024/04/06 02:12:31;;;;;;;45.60;40.83;;;13.00;83.70;;;;;;4987486;28;113152;-52
2024/04/06 02:14:57;;;;;;;44.42;39.65;;;13.00;84.00;;;;;;4985224;28;113424;-52
2024/04/06 02:17:23;;;;;;;44.65;39.78;;;12.90;84.60;;;;;;4987566;28;112960;-52
2024/04/06 02:19:48;;;;;;;45.25;40.38;;;12.90;84.20;;;;;;4987938;28;113514;-52
2024/04/06 02:22:14;;;;;;;47.50;40.30;;;13.00;84.20;;;;;;4987933;28;113014;-52
2024/04/06 02:24:40;;;;;;;46.42;39.97;;;13.00;84.10;;;;;;5001889;28;112808;-52
2024/04/06 02:27:06;;;;;;;43.95;39.35;;;13.00;84.00;;;;;;4991956;28;112719;-52
2024/04/06 02:29:31;;;;;;;44.75;39.85;;;12.90;83.90;;;;;;4987111;28;113208;-52
2024/04/06 02:31:57;;;;;;;44.47;39.78;;;12.90;84.30;;;;;;4988479;28;114244;-52
2024/04/06 02:34:23;;;;;;;44.08;39.47;;;12.90;84.40;;;;;;4992636;28;112511;-52
2024/04/06 02:36:49;;;;;;;46.88;40.30;;;12.90;84.10;;;;;;5004362;28;112700;-52
2024/04/06 02:39:15;;;;;;;46.80;41.22;;;12.80;84.50;;;;;;4979122;28;113418;-52
2024/04/06 02:41:41;;;;;;;47.45;40.72;;;12.90;84.10;;;;;;4990421;28;113830;-52
2024/04/06 02:44:06;;;;;;;44.13;39.47;;;12.90;84.20;;;;;;4995722;28;113007;-52
2024/04/06 02:46:33;;;;;;;46.15;41.53;;;12.80;84.60;;;;;;4991491;28;112767;-52
2024/04/06 02:48:59;;;;;;;47.83;42.35;;;12.80;84.60;;;;;;4987134;28;116217;-52
2024/04/06 02:51:26;;;;;;;48.50;43.28;;;12.80;84.70;;;;;;4987970;28;112602;-52
2024/04/06 02:53:51;;;;;;;50.58;45.25;;;12.80;85.10;;;;;;4989130;28;112713;-52
2024/04/06 02:56:17;;;;;;;51.95;46.13;;;12.80;85.00;;;;;;4989473;28;113248;-52
2024/04/06 02:58:43;;;;;;;57.65;51.10;;;12.80;85.10;;;;;;4987171;28;113236;-52
2024/04/06 03:01:09;;;;;;;55.75;48.33;;;12.80;85.50;;;;;;4990531;28;112945;-52
2024/04/06 03:03:35;;;;;;;56.83;50.70;;;12.80;85.50;;;;;;4992115;28;112795;-52
2024/04/06 03:06:00;;;;;;;54.30;48.42;;;12.80;85.50;;;;;;4989503;28;112761;-52
2024/04/06 03:08:26;;;;;;;53.97;48.38;;;12.70;85.90;;;;;;4986421;28;114896;-52
2024/04/06 03:10:52;;;;;;;54.92;48.85;;;12.80;85.60;;;;;;4987976;28;113087;-52
2024/04/06 03:13:19;;;;;;;51.95;46.40;;;12.80;85.60;;;;;;4989380;28;112686;-52
2024/04/06 03:15:45;;;;;;;57.78;51.72;;;12.90;85.10;;;;;;4995323;28;112964;-52
2024/04/06 03:18:12;;;;;;;58.58;52.53;;;12.70;85.50;;;;;;4987952;28;113319;-52
2024/04/06 03:20:38;;;;;;;54.47;48.63;;;12.70;85.80;;;;;;4988065;28;112939;-52
2024/04/06 03:23:05;;;;;;;54.83;49.00;;;12.80;85.40;;;;;;4987426;28;112822;-52
2024/04/06 03:25:33;;;;;;;79.00;52.15;;;12.70;85.30;;;;;;4990275;28;113072;-52
2024/04/06 03:27:59;;;;;;;56.88;50.13;;;12.70;85.50;;;;;;5003386;28;113247;-52
2024/04/06 03:30:25;;;;;;;56.20;50.40;;;12.80;85.60;;;;;;4987688;28;113740;-51
2024/04/06 03:32:52;;;;;;;56.92;50.13;;;12.70;85.40;;;;;;4996448;28;112689;-52
2024/04/06 03:35:18;;;;;;;56.30;50.53;;;12.70;85.20;;;;;;4988090;28;112748;-52
2024/04/06 03:37:47;;;;;;;56.85;50.85;;;12.70;85.20;;;;;;4988150;28;113540;-52
2024/04/06 03:40:13;;;;;;;58.78;52.35;;;12.60;85.60;;;;;;4987753;28;113073;-53
2024/04/06 03:42:39;;;;;;;58.22;51.67;;;12.70;85.70;;;;;;4998013;28;113113;-52
2024/04/06 03:45:06;;;;;;;61.00;52.72;;;12.70;85.70;;;;;;4991785;28;112949;-52
2024/04/06 03:47:32;;;;;;;54.55;48.75;;;12.70;86.00;;;;;;4987377;28;114534;-52
2024/04/06 03:49:58;;;;;;;58.33;52.17;;;12.70;85.90;;;;;;4986332;28;113323;-52
2024/04/06 03:52:24;;;;;;;58.85;52.38;;;12.60;85.80;;;;;;4988967;28;112871;-52
2024/04/06 03:54:50;;;;;;;56.92;50.53;;;12.60;86.00;;;;;;4987448;28;112865;-52
2024/04/06 03:57:16;;;;;;;58.33;50.17;;;12.60;85.90;;;;;;4985078;28;114150;-52
2024/04/06 03:59:41;;;;;;;60.30;49.97;;;12.60;86.30;;;;;;4968222;28;113355;-52
2024/04/06 04:02:07;;;;;;;57.10;50.90;;;12.60;86.10;;;;;;4989992;28;112888;-52
2024/04/06 04:04:33;;;;;;;57.90;52.08;;;12.60;86.00;;;;;;4994055;28;112763;-52
2024/04/06 04:06:58;;;;;;;58.05;51.85;;;12.60;86.10;;;;;;4982238;28;113122;-52
2024/04/06 04:09:24;;;;;;;55.80;49.80;;;12.60;86.00;;;;;;4986878;28;112823;-52
2024/04/06 04:11:50;;;;;;;64.18;51.13;;;12.60;86.10;;;;;;4987916;28;112840;-52
2024/04/06 04:14:16;;;;;;;58.83;51.72;;;12.60;85.70;;;;;;4987198;28;113633;-52
2024/04/06 04:16:42;;;;;;;58.03;51.97;;;12.60;85.90;;;;;;4982981;28;113273;-52
2024/04/06 04:19:08;;;;;;;61.75;53.10;;;12.50;86.30;;;;;;4986302;28;113588;-52
2024/04/06 04:21:33;;;;;;;57.83;51.70;;;12.50;86.20;;;;;;4999042;28;112537;-52
2024/04/06 04:23:59;;;;;;;58.65;52.47;;;12.50;86.10;;;;;;4998859;28;112755;-52
2024/04/06 04:26:25;;;;;;;58.10;49.13;;;12.50;86.10;;;;;;4988315;28;113325;-52
2024/04/06 04:28:51;;;;;;;62.22;52.20;;;12.50;86.10;;;;;;4986503;28;113791;-52
2024/04/06 04:31:18;;;;;;;57.88;51.78;;;12.50;86.20;;;;;;4984032;28;112770;-52
2024/04/06 04:33:44;;;;;;;60.28;53.83;;;12.40;86.40;;;;;;4984156;28;113127;-52
2024/04/06 04:36:12;;;;;;;60.85;52.88;;;12.50;86.50;;;;;;4991193;28;113219;-52
2024/04/06 04:38:39;;;;;;;57.22;51.08;;;12.50;86.40;;;;;;4995607;28;113426;-52
2024/04/06 04:41:05;;;;;;;62.60;54.47;;;12.50;86.50;;;;;;4995603;28;112683;-52
2024/04/06 04:43:31;;;;;;;61.97;52.13;;;12.50;86.40;;;;;;4990100;28;113168;-52
2024/04/06 04:45:57;;;;;;;57.83;51.55;;;12.50;86.70;;;;;;4995585;28;113123;-52
2024/04/06 04:48:23;;;;;;;56.70;50.50;;;12.50;86.60;;;;;;4986313;28;113773;-52
2024/04/06 04:50:49;;;;;;;58.55;52.50;;;12.50;86.50;;;;;;4995597;28;113418;-52
2024/04/06 04:53:15;;;;;;;58.92;49.80;;;12.50;86.40;;;;;;4990804;28;112833;-52
2024/04/06 04:55:41;;;;;;;57.72;51.45;;;12.60;86.40;;;;;;4987690;28;113294;-52
2024/04/06 04:58:08;;;;;;;59.67;49.63;;;12.40;86.30;;;;;;4997556;28;113149;-52
2024/04/06 05:00:34;;;;;;;62.42;51.42;;;12.60;86.50;;;;;;4994788;28;112687;-52
2024/04/06 05:03:00;;;;;;;60.85;49.95;;;12.60;86.10;;;;;;4988741;28;112806;-52
2024/04/06 05:05:26;;;;;;;57.28;51.03;;;12.60;86.00;;;;;;4986158;28;113271;-52
2024/04/06 05:07:51;;;;;;;58.35;48.05;;;12.60;86.30;;;;;;4996637;28;112763;-52
2024/04/06 05:10:17;;;;;;;53.35;47.05;;;12.70;86.20;;;;;;4987178;28;112859;-52
2024/04/06 05:12:43;;;;;;;53.78;48.13;;;12.70;86.30;;;;;;4987052;28;113062;-52
2024/04/06 05:15:08;;;;;;;55.55;48.80;;;12.70;86.20;;;;;;4985342;28;114568;-52
2024/04/06 05:17:37;;;;;;;54.53;48.47;;;12.80;86.20;;;;;;4987408;28;112861;-53
2024/04/06 05:20:05;;;;;;;52.85;47.28;;;12.80;86.30;;;;;;4986061;28;112549;-52
2024/04/06 05:22:31;;;;;;;55.17;47.83;;;12.90;85.80;;;;;;4986615;28;113173;-53
2024/04/06 05:24:57;;;;;;;58.70;47.55;;;12.80;86.10;;;;;;4984779;28;114537;-52
2024/04/06 05:27:24;;;;;;;56.30;47.22;;;12.90;86.10;;;;;;4986182;28;113449;-52
2024/04/06 05:29:50;;;;;;;58.15;48.60;;;12.90;86.20;;;;;;4985878;28;112696;-52
2024/04/06 05:32:16;;;;;;;54.03;48.15;;;13.00;86.30;;;;;;4987740;28;112844;-52
2024/04/06 05:34:41;;;;;;;52.47;46.88;;;13.10;86.00;;;;;;4990520;28;114623;-52
2024/04/06 05:37:07;;;;;;;57.67;49.40;;;13.10;85.90;;;;;;4997512;28;113502;-52
2024/04/06 05:39:33;;;;;;;53.17;47.30;;;13.10;86.00;;;;;;4988385;28;112615;-52
2024/04/06 05:41:58;;;;;;;53.53;47.00;;;13.20;86.00;;;;;;4996176;28;112642;-52
2024/04/06 05:44:24;;;;;;;62.92;50.83;;;13.30;85.80;;;;;;4989191;28;113224;-52
2024/04/06 05:46:51;;;;;;;54.65;47.35;;;13.40;85.70;;;;;;4984404;28;113911;-52
2024/04/06 05:49:17;;;;;;;50.05;45.15;;;13.50;85.70;;;;;;4987068;28;112765;-52
2024/04/06 05:51:43;;;;;;;56.38;44.45;;;13.60;85.50;;;;;;4985790;28;113221;-52
2024/04/06 05:54:08;;;;;;;52.58;46.95;;;13.70;85.30;;;;;;4988597;28;113259;-53
2024/04/06 05:56:34;;;;;;;52.10;43.72;;;13.80;85.30;;;;;;4987142;28;113079;-52
2024/04/06 05:59:00;;;;;;;51.72;45.13;;;13.90;85.10;;;;;;4986749;28;112685;-52
2024/04/06 06:01:25;;;;;;;54.67;45.13;;;13.90;85.20;;;;;;4981685;28;112921;-52
2024/04/06 06:03:51;;;;;;;49.13;43.97;;;14.00;85.40;;;;;;4978810;28;113280;-53
2024/04/06 06:06:17;;;;;;;46.35;41.35;;;14.10;85.10;;;;;;4968143;28;115780;-52
2024/04/06 06:08:42;;;;;;;47.22;42.08;;;14.30;84.80;;;;;;4987791;28;113994;-52
2024/04/06 06:11:08;;;;;;;47.13;42.03;;;14.40;84.50;;;;;;4997976;28;112785;-52
2024/04/06 06:13:34;;;;;;;47.58;41.20;;;14.40;84.50;;;;;;4984322;28;114449;-52
2024/04/06 06:16:01;;;;;;;47.47;42.17;;;14.50;84.50;;;;;;4997799;28;112766;-52
2024/04/06 06:18:27;;;;;;;43.35;38.92;;;14.60;84.30;;;;;;4986395;28;112816;-52
2024/04/06 06:20:52;;;;;;;45.53;40.80;;;14.70;84.40;;;;;;4998253;28;113345;-52
2024/04/06 06:23:18;;;;;;;44.67;40.08;;;14.80;84.20;;;;;;4984526;28;113761;-52
2024/04/06 06:25:44;;;;;;;42.50;38.20;;;14.80;84.20;;;;;;4985238;28;112787;-52
2024/04/06 06:28:09;;;;;;;42.28;37.10;;;14.80;83.90;;;;;;4985489;28;114431;-52
2024/04/06 06:30:35;;;;;;;44.67;37.60;;;15.00;83.70;;;;;;4987559;28;112684;-53
2024/04/06 06:33:01;;;;;;;40.67;36.25;;;15.10;83.30;;;;;;4984075;28;113325;-52
2024/04/06 06:35:27;;;;;;;39.35;35.17;;;15.20;82.90;;;;;;4983246;28;115575;-52
2024/04/06 06:37:53;;;;;;;39.22;33.90;;;15.30;83.10;;;;;;4985078;28;112718;-53
2024/04/06 06:40:19;;;;;;;37.67;33.63;;;15.40;82.60;;;;;;4990533;28;112640;-53
2024/04/06 06:42:45;;;;;;;37.47;33.42;;;15.50;82.10;;;;;;4988652;28;113456;-53
2024/04/06 06:45:11;;;;;;;37.40;32.78;;;15.50;82.20;;;;;;4987079;28;112802;-53
2024/04/06 06:47:37;;;;;;;33.60;30.10;;;15.60;81.90;;;;;;4998451;28;112588;-53
2024/04/06 06:50:03;;;;;;;33.97;29.20;;;15.80;81.50;;;;;;4994045;28;112837;-53
2024/04/06 06:52:29;;;;;;;36.10;29.77;;;15.90;81.30;;;;;;5004309;28;113170;-53
2024/04/06 06:54:55;;;;;;;32.92;29.35;;;16.00;80.80;;;;;;4988741;28;112926;-53
2024/04/06 06:57:20;;;;;;;31.15;27.85;;;16.10;80.70;;;;;;4988271;28;113835;-52
2024/04/06 06:59:46;;;;;;;33.28;26.77;;;16.10;80.60;;;;;;4989120;28;112752;-53
2024/04/06 07:02:12;;;;;;;30.23;26.95;;;16.30;80.10;;;;;;4998784;28;113396;-52
2024/04/06 07:04:37;;;;;;;30.25;27.05;;;16.40;79.70;;;;;;4987262;28;112878;-53
2024/04/06 07:07:03;;;;;;;29.17;25.90;;;16.40;79.40;;;;;;4974558;28;112566;-53
2024/04/06 07:09:29;;;;;;;34.50;25.13;;;16.50;79.40;;;;;;4987898;28;112850;-53
2024/04/06 07:11:55;;;;;;;24.88;22.27;;;16.70;78.90;;;;;;4989252;28;113296;-53
2024/04/06 07:14:21;;;;;;;25.85;21.25;;;16.80;78.00;;;;;;4975621;28;112783;-53
2024/04/06 07:16:48;;;;;;;27.13;22.05;;;16.90;77.40;;;;;;4972495;28;112737;-53
2024/04/06 07:19:16;;;;;;;25.20;20.73;;;16.90;77.50;;;;;;4979881;28;113030;-53
2024/04/06 07:21:41;;;;;;;24.23;19.02;;;17.00;77.30;;;;;;4972417;28;114464;-53
2024/04/06 07:24:07;;;;;;;21.30;18.27;;;17.20;76.80;;;;;;4974522;28;113144;-53
2024/04/06 07:26:33;;;;;;;24.00;17.55;;;17.40;75.80;;;;;;4967868;28;112868;-53
2024/04/06 07:28:58;;;;;;;23.45;16.83;;;17.40;75.40;;;;;;4968121;28;112753;-53
2024/04/06 07:31:24;;;;;;;20.73;17.15;;;17.40;75.30;;;;;;4973860;28;114490;-54
2024/04/06 07:33:50;;;;;;;27.00;15.65;;;17.60;75.10;;;;;;4977620;28;113013;-54
2024/04/06 07:36:17;;;;;;;20.13;15.15;;;17.70;74.20;;;;;;4967496;28;112683;-54
2024/04/06 07:38:42;;;;;;;23.05;14.63;;;17.80;73.90;;;;;;4972012;28;112834;-54
2024/04/06 07:41:09;;;;;;;17.15;14.90;;;17.90;73.40;;;;;;4975801;28;115088;-54
2024/04/06 07:43:35;;;;;;;22.08;13.98;;;18.10;73.50;;;;;;4971961;28;112752;-54
2024/04/06 07:46:02;;;;;;;18.73;12.95;;;18.20;72.50;;;;;;4972497;28;112600;-54
2024/04/06 07:48:27;;;;;;;16.52;10.75;;;18.30;72.60;;;;;;4967371;28;112819;-55
2024/04/06 07:50:53;;;;;;;31.63;25.60;;;18.20;71.50;;;;;;4984495;28;114616;-55
2024/04/06 07:53:19;;;;;;;34.13;25.73;;;18.40;70.50;;;;;;4968176;28;112809;-54
2024/04/06 07:55:45;;;;;;;20.25;15.02;;;18.50;70.40;;;;;;4973284;28;113121;-53
2024/04/06 07:58:11;;;;;;;17.30;9.65;;;18.70;69.90;;;;;;4970985;28;113005;-54
2024/04/06 08:00:37;;;;;;;15.13;9.43;;;18.80;69.20;;;;;;4975549;28;115440;-53
2024/04/06 08:03:04;;;;;;;14.77;9.43;;;18.80;68.90;;;;;;4977050;28;114383;-54
2024/04/06 08:05:30;;;;;;;14.73;10.95;;;18.90;68.70;;;;;;4984125;28;112918;-53
2024/04/06 08:07:56;;;;;;;13.23;9.55;;;18.80;68.40;;;;;;4976887;28;112948;-53
2024/04/06 08:10:23;;;;;;;13.88;8.85;;;18.80;69.20;;;;;;4986894;28;113222;-53
2024/04/06 08:12:50;;;;;;;13.35;8.23;;;19.00;67.60;;;;;;4975823;28;112792;-54
2024/04/06 08:15:16;;;;;;;17.40;10.18;;;19.10;67.70;;;;;;4967688;28;112892;-53
2024/04/06 08:17:46;;;;;;;13.95;8.85;;;19.30;67.00;;;;;;4974722;28;112743;-53
2024/04/06 08:20:12;;;;;;;15.48;9.98;;;19.40;65.80;;;;;;4967104;28;112911;-54
2024/04/06 08:22:41;;;;;;;17.88;8.18;;;19.70;64.90;;;;;;4966223;28;113727;-53
2024/04/06 08:25:09;;;;;;;13.88;7.70;;;19.50;64.40;;;;;;4967861;28;112980;-54
2024/04/06 08:27:35;;;;;;;15.18;8.05;;;19.40;64.00;;;;;;4967903;28;112747;-54
2024/04/06 08:30:04;;;;;;;15.38;9.45;;;19.40;64.60;;;;;;4968803;28;113766;-53
2024/04/06 08:32:31;;;;;;;15.45;8.77;;;19.50;64.30;;;;;;4966697;28;112803;-54
2024/04/06 08:34:58;;;;;;;12.75;8.02;;;19.20;65.20;;;;;;4967451;28;112634;-54
2024/04/06 08:37:24;;;;;;;18.33;9.38;;;19.40;64.60;;;;;;4967977;28;113289;-53
2024/04/06 08:39:50;;;;;;;13.93;9.27;;;19.60;64.70;;;;;;4966614;28;113663;-54
2024/04/06 08:42:21;;;;;;;15.90;8.20;;;19.80;64.50;;;;;;4974529;28;113038;-54
2024/04/06 08:44:47;;;;;;;15.38;6.85;;;20.10;62.10;;;;;;4966950;28;112827;-54
2024/04/06 08:47:19;;;;;;;12.32;7.28;;;20.30;62.20;;;;;;4968018;28;113242;-51
2024/04/06 08:49:46;;;;;;;15.10;8.07;;;20.80;62.00;;;;;;4966737;28;113327;-51
2024/04/06 08:52:13;;;;;;;17.23;8.80;;;20.90;61.60;;;;;;4966400;28;113242;-52
2024/04/06 08:54:42;;;;;;;16.25;8.65;;;21.20;61.30;;;;;;4967694;28;112757;-53
2024/04/06 08:57:08;;;;;;;17.27;10.95;;;20.80;60.70;;;;;;4977255;28;112779;-53
2024/04/06 08:59:34;;;;;;;15.65;9.50;;;21.00;60.70;;;;;;4974684;28;113243;-54
2024/04/06 09:02:01;;;;;;;17.25;8.40;;;20.90;59.60;;;;;;4994862;28;113880;-53
2024/04/06 09:04:27;;;;;;;16.63;9.77;;;20.90;59.50;;;;;;4977421;28;114671;-53
2024/04/06 09:06:52;;;;;;;21.15;11.20;;;20.90;61.40;;;;;;4983799;28;112817;-54
2024/04/06 09:09:18;;;;;;;13.85;9.25;;;20.80;59.80;;;;;;4976333;28;114668;-53
2024/04/06 09:11:44;;;;;;;15.93;10.73;;;21.40;59.50;;;;;;4979971;28;113211;-52
2024/04/06 09:20:17;;;;;;;23.17;14.85;;;20.90;59.90;;;;;;5096432;27;112583;-51
2024/04/06 09:22:44;;;;;;;20.33;13.88;;;21.60;59.30;;;;;;5077377;27;113047;-52
2024/04/06 09:25:10;;;;;;;20.70;14.50;;;21.80;59.30;;;;;;5074856;27;112679;-51
2024/04/06 09:27:43;;;;;;;18.83;13.25;;;22.30;58.40;;;;;;5063246;27;113172;-52
2024/04/06 09:30:10;;;;;;;22.13;14.35;;;22.60;57.60;;;;;;5063488;27;112976;-52
2024/04/06 09:32:36;;;;;;;21.58;13.68;;;22.60;56.70;;;;;;5063930;27;112632;-52
2024/04/06 09:35:02;;;;;;;20.63;15.30;;;22.90;56.60;;;;;;5064191;27;112941;-52
2024/04/06 09:37:33;;;;;;;21.90;13.75;;;22.50;56.00;;;;;;5062697;27;114580;-53
2024/04/06 09:39:59;;;;;;;17.38;12.30;;;22.50;56.00;;;;;;5062800;27;114678;-52
2024/04/06 09:42:25;;;;;;;17.40;11.27;;;22.70;55.90;;;;;;5063904;27;112651;-53
2024/04/06 09:44:53;;;;;;;16.40;11.30;;;22.70;55.70;;;;;;5063852;27;112934;-53
2024/04/06 09:47:22;;;;;;;18.67;12.05;;;23.40;54.20;;;;;;5062812;27;113455;-53
2024/04/06 09:49:51;;;;;;;13.13;11.05;;;23.30;53.70;;;;;;5062442;27;112813;-52
2024/04/06 09:52:19;;;;;;;13.95;10.20;;;23.30;54.00;;;;;;5063933;27;112721;-53
2024/04/06 09:54:46;;;;;;;14.25;8.90;;;23.30;54.30;;;;;;5063605;27;112669;-53
2024/04/06 09:57:13;;;;;;;14.10;8.25;;;23.80;54.30;;;;;;5063823;27;113590;-52
2024/04/06 09:59:40;;;;;;;17.23;10.32;;;24.30;52.80;;;;;;5064287;27;114237;-52
2024/04/06 10:02:07;;;;;;;13.48;9.30;;;24.20;51.40;;;;;;5063887;27;112690;-54
2024/04/06 10:04:37;;;;;;;13.50;8.95;;;23.40;53.20;;;;;;5065470;27;112656;-54
2024/04/06 10:07:06;;;;;;;12.13;8.07;;;23.00;54.30;;;;;;5079283;27;114514;-53
2024/04/06 10:09:34;;;;;;;12.60;9.25;;;23.40;54.40;;;;;;5076034;27;112561;-53
2024/04/06 10:12:06;;;;;;;11.52;8.70;;;24.20;51.10;;;;;;5044303;27;112791;-53
2024/04/06 10:14:31;;;;;;;14.45;9.25;;;24.20;51.30;;;;;;5066650;27;112849;-54
2024/04/06 10:17:14;;;;;;;16.20;9.27;;;23.80;52.40;;;;;;5050100;27;113139;-53
2024/04/06 10:19:40;;;;;;;;;;;24.00;52.60;;;;;;5074486;27;113233;-54
2024/04/06 10:22:06;;;;;;;15.02;8.80;;;25.10;50.60;;;;;;5079753;27;113121;-54
2024/04/06 10:24:36;;;;;;;14.60;8.55;;;24.80;50.30;;;;;;5054936;27;113106;-54
2024/04/06 10:27:02;;;;;;;13.73;9.20;;;25.10;50.00;;;;;;5070363;27;114489;-54
2024/04/06 10:29:29;;;;;;;12.75;9.48;;;27.90;43.90;;;;;;5072972;27;112745;-54
2024/04/06 10:31:55;;;;;;;12.98;9.15;;;27.30;45.00;;;;;;5064367;27;112723;-54
2024/04/06 10:34:21;;;;;;;14.52;10.75;;;30.40;39.90;;;;;;5063073;27;112803;-54
2024/04/06 10:36:47;;;;;;;12.10;9.02;;;32.30;37.00;;;;;;5060191;27;113782;-54
2024/04/06 10:39:17;;;;;;;12.10;8.32;;;33.90;34.40;;;;;;5051337;27;114200;-54
2024/04/06 10:41:43;;;;;;;11.80;9.95;;;35.50;33.00;;;;;;5061205;27;113473;-54
2024/04/06 10:44:10;;;;;;;12.32;10.15;;;36.10;31.70;;;;;;5066146;27;113033;-54
2024/04/06 10:46:36;;;;;;;12.43;10.35;;;36.50;31.60;;;;;;5057942;27;113277;-54
2024/04/06 10:49:08;;;;;;;13.40;10.70;;;36.60;31.00;;;;;;5062854;27;113480;-55
2024/04/06 10:51:33;;;;;;;12.73;11.45;;;34.90;32.50;;;;;;5060267;27;112935;-55
2024/04/06 10:53:59;;;;;;;11.18;10.07;;;34.90;32.50;;;;;;5062834;27;112734;-55
2024/04/06 10:56:26;;;;;;;10.73;9.63;;;35.10;32.00;;;;;;5060807;27;114538;-54
2024/04/06 10:58:52;;;;;;;11.52;10.00;;;29.20;40.40;;;;;;5060819;27;113794;-54
2024/04/06 11:01:19;;;;;;;10.68;9.25;;;32.90;36.00;;;;;;5069900;27;112867;-55
2024/04/06 11:03:48;;;;;;;15.48;11.30;;;31.50;37.00;;;;;;5060187;27;112694;-54
2024/04/06 11:06:14;;;;;;;12.20;10.90;;;29.30;41.60;;;;;;5064802;27;113410;-55
2024/04/06 11:08:41;;;;;;;17.35;11.05;;;33.20;35.60;;;;;;5069221;27;113360;-55
2024/04/06 11:11:09;;;;;;;12.40;11.18;;;32.90;35.90;;;;;;5069927;27;112445;-55
2024/04/06 11:13:39;;;;;;;11.20;10.05;;;34.20;33.30;;;;;;5070166;27;113219;-55
2024/04/06 11:16:06;;;;;;;13.55;12.15;;;28.20;42.30;;;;;;5069047;27;113202;-54
2024/04/06 11:18:58;;;;;;;15.70;11.45;;;26.40;45.40;;;;;;5068451;27;112822;-55
2024/04/06 11:21:24;;;;;;;12.23;10.20;;;30.20;39.40;;;;;;5066165;27;112863;-54
2024/04/06 11:23:50;;;;;;;13.10;11.80;;;27.20;44.80;;;;;;5070337;27;113221;-54
2024/04/06 11:26:20;;;;;;;14.43;11.65;;;25.30;47.90;;;;;;5068641;27;114482;-54
2024/04/06 11:28:46;;;;;;;12.48;11.13;;;25.10;48.80;;;;;;5068541;27;113535;-54
2024/04/06 11:31:12;;;;;;;14.20;10.35;;;24.90;49.80;;;;;;5069242;27;112583;-54
2024/04/06 11:33:38;;;;;;;13.07;11.70;;;27.30;46.80;;;;;;5070036;27;113201;-54
2024/04/06 11:36:04;;;;;;;13.90;12.60;;;31.10;37.90;;;;;;5068433;27;114653;-54
2024/04/06 11:38:30;;;;;;;15.80;9.98;;;27.90;42.90;;;;;;5068822;27;112720;-54
2024/04/06 11:40:57;;;;;;;10.98;9.55;;;32.80;36.70;;;;;;5069491;27;112849;-55
2024/04/06 11:43:23;;;;;;;13.18;8.43;;;36.20;31.90;;;;;;5069663;27;112738;-55
2024/04/06 11:45:49;;;;;;;13.07;11.10;;;35.40;32.20;;;;;;5069777;27;112972;-55
2024/04/06 11:48:15;;;;;;;11.25;10.05;;;35.40;31.80;;;;;;5068386;27;112940;-55
2024/04/06 11:50:41;;;;;;;11.25;9.98;;;36.30;30.60;;;;;;5069303;27;112641;-55
2024/04/06 11:53:09;;;;;;;9.90;8.77;;;36.90;30.10;;;;;;5069752;27;112775;-55
2024/04/06 11:55:35;;;;;;;12.48;9.30;;;36.70;30.40;;;;;;5069710;27;113213;-55
2024/04/06 11:58:02;;;;;;;9.10;7.05;;;37.60;28.80;;;;;;5050786;27;114715;-55
2024/04/06 12:00:29;;;;;;;10.80;7.80;;;38.50;28.40;;;;;;5070186;27;112583;-55
2024/04/06 12:02:55;;;;;;;9.02;7.53;;;38.20;28.20;;;;;;5070113;27;112700;-55
2024/04/06 12:05:21;;;;;;;12.32;8.57;;;33.90;32.60;;;;;;5068749;27;113652;-55
2024/04/06 12:07:47;;;;;;;11.07;8.05;;;31.60;34.90;;;;;;5068748;27;113686;-55
2024/04/06 12:10:13;;;;;;;10.50;7.95;;;31.80;35.80;;;;;;5069701;27;112679;-55
2024/04/06 12:12:39;;;;;;;10.35;8.07;;;35.90;30.80;;;;;;5051301;27;113260;-55
2024/04/06 12:15:05;;;;;;;11.27;9.23;;;33.20;34.00;;;;;;5050135;27;114475;-55
2024/04/06 12:17:31;;;;;;;13.65;8.65;;;29.00;39.00;;;;;;5054408;27;114554;-55
2024/04/06 12:19:57;;;;;;;11.50;8.82;;;26.90;43.70;;;;;;5069499;27;112529;-55
2024/04/06 12:22:23;;;;;;;12.27;8.68;;;30.40;38.90;;;;;;5069889;27;112618;-55